This is the latest recevied weather packets stored in our database for station/object DO1YM-13. If no packets are shown the sender has not sent any weather packets the latest 10 day(s).
| Time | Temp. | Humidity | Pressure | Rain* | Wind** | Luminosity | Snow |
|---|---|---|---|---|---|---|---|
| 1787774748 | 17.22° C | 64% | 1016.3 hPa | 0 mm | - | 0 W/m² | - |
| 1787774448 | 17.22° C | 62% | 1016.3 hPa | 0 mm | - | 0 W/m² | - |
| 1787774148 | 17.22° C | 61% | 1016.3 hPa | 0 mm | - | 0 W/m² | - |
| 1787773848 | 17.78° C | 63% | 1016.3 hPa | 0 mm | - | 0 W/m² | - |
| 1787773548 | 17.78° C | 62% | 1016.3 hPa | 0 mm | - | 0 W/m² | - |
| 1787773248 | 18.33° C | 61% | 1016.3 hPa | 0 mm | - | 0 W/m² | - |
| 1787772952 | 18.89° C | 58% | 1016.3 hPa | 0 mm | - | 0 W/m² | - |
| 1787772648 | 20.56° C | 51% | 1015.9 hPa | 0 mm | - | 0 W/m² | - |
| 1787772347 | 18.33° C | 62% | 1016.3 hPa | 0 mm | - | 0 W/m² | - |
| 1787772048 | 18.33° C | 62% | 1016.3 hPa | 0 mm | - | 0 W/m² | - |
| 1787771748 | 18.33° C | 60% | 1015.9 hPa | 0 mm | - | 0 W/m² | - |
| 1787771449 | 18.89° C | 60% | 1015.9 hPa | 0 mm | - | 0 W/m² | - |
| 1787771148 | 18.89° C | 59% | 1015.9 hPa | 0 mm | - | 0 W/m² | - |
| 1787770848 | 19.44° C | 57% | 1015.9 hPa | 0 mm | - | 0 W/m² | - |
| 1787770548 | 19.44° C | 57% | 1015.9 hPa | 0 mm | - | 0 W/m² | - |
| 1787770248 | 19.44° C | 57% | 1016.3 hPa | 0 mm | - | 0 W/m² | - |
| 1787769947 | 19.44° C | 54% | 1015.9 hPa | 0 mm | - | 0 W/m² | - |
| 1787769648 | 20° C | 56% | 1015.9 hPa | 0 mm | - | 0 W/m² | - |
| 1787769348 | 20.56° C | 56% | 1015.9 hPa | 0 mm | - | 0 W/m² | - |
| 1787769047 | 20.56° C | 52% | 1015.9 hPa | 0 mm | - | 0 W/m² | - |
| 1787768748 | 20.56° C | 52% | 1015.9 hPa | 0 mm | - | 0 W/m² | - |
| 1787768447 | 20.56° C | 52% | 1015.6 hPa | 0 mm | - | 1 W/m² | - |
| 1787768148 | 20.56° C | 52% | 1015.9 hPa | 0 mm | - | 1 W/m² | - |
| 1787767847 | 20.56° C | 52% | 1015.9 hPa | 0 mm | - | 2 W/m² | - |
| 1787767548 | 20.56° C | 52% | 1015.9 hPa | 0 mm | - | 2 W/m² | - |
* Rain since midnight (hover to see other rain measurements)
** Current wind speed in m/s (hover to see current wind gust speed)